Time;durP1;ratioP1;P1;durP2;ratioP2;P2;SDS_P1;SDS_P2;PMS_P1;PMS_P2;Temp;Humidity;BMP_temperature;BMP_pressure;BME280_temperature;BME280_humidity;BME280_pressure;Samples;Min_cycle;Max_cycle;Signal;HPM_P1;HPM_P2
2023/08/18 00:01:05;;;;;;;8.57;6.40;;;;;;;23.82;69.49;94953.47;5053777;28;20493;-78
2023/08/18 00:03:32;;;;;;;7.63;7.03;;;;;;;23.87;68.99;94941.09;5020497;28;20465;-78
2023/08/18 00:05:58;;;;;;;10.63;6.40;;;;;;;23.98;69.11;94943.09;5072375;28;20444;-78
2023/08/18 00:08:29;;;;;;;12.13;6.60;;;;;;;24.09;68.94;94944.31;5072191;28;20983;-78
2023/08/18 00:10:56;;;;;;;9.47;6.57;;;;;;;24.12;67.59;94945.75;5072225;28;20812;-78
2023/08/18 00:13:23;;;;;;;11.47;7.53;;;;;;;24.09;67.37;94952.38;5072371;28;20456;-78
2023/08/18 00:15:54;;;;;;;8.43;6.50;;;;;;;24.14;67.10;94946.38;5071906;28;20439;-78
2023/08/18 00:18:21;;;;;;;17.63;6.90;;;;;;;24.19;65.90;94941.19;5072301;28;20447;-78
2023/08/18 00:20:50;;;;;;;7.70;6.50;;;;;;;24.24;64.58;94939.50;5072077;28;20469;-77
2023/08/18 00:23:17;;;;;;;8.00;5.80;;;;;;;24.27;65.07;94936.38;5072072;28;20454;-77
2023/08/18 00:25:46;;;;;;;11.53;6.00;;;;;;;24.28;63.83;94937.25;5072030;28;20457;-78
2023/08/18 00:28:12;;;;;;;6.27;5.67;;;;;;;24.22;63.15;94936.22;5071796;28;20821;-77
2023/08/18 00:30:39;;;;;;;7.83;6.13;;;;;;;24.32;63.36;94933.13;5071972;28;20459;-77
2023/08/18 00:33:06;;;;;;;7.33;6.47;;;;;;;24.38;63.81;94943.81;5072161;28;20448;-77
2023/08/18 00:35:33;;;;;;;6.87;6.00;;;;;;;24.43;63.33;94935.13;5071821;28;20942;-78
2023/08/18 00:38:00;;;;;;;8.77;6.43;;;;;;;24.44;62.54;94938.63;5075376;28;20444;-77
2023/08/18 00:40:26;;;;;;;6.57;5.90;;;;;;;24.38;62.23;94925.03;5075871;28;20437;-78
2023/08/18 00:42:55;;;;;;;6.73;6.10;;;;;;;24.37;62.06;94933.31;5076314;28;20442;-78
2023/08/18 00:45:22;;;;;;;6.57;5.87;;;;;;;24.37;62.13;94933.31;5075729;28;20920;-77
2023/08/18 00:47:50;;;;;;;6.77;6.17;;;;;;;24.42;61.68;94933.47;5075655;28;20446;-78
2023/08/18 00:50:18;;;;;;;7.53;6.17;;;;;;;24.44;62.16;94931.41;5075592;28;21005;-79
2023/08/18 00:52:48;;;;;;;6.17;5.57;;;;;;;24.39;61.54;94928.53;5075502;28;20441;-78
2023/08/18 00:55:15;;;;;;;7.73;5.67;;;;;;;24.47;61.92;94935.50;5073482;28;20832;-78
2023/08/18 00:57:43;;;;;;;10.03;6.37;;;;;;;24.52;61.60;94941.06;5075936;28;20443;-78
2023/08/18 01:00:12;;;;;;;6.90;6.30;;;;;;;24.49;61.33;94945.00;5075854;28;20456;-77
2023/08/18 01:02:39;;;;;;;9.57;7.20;;;;;;;24.49;61.79;94939.63;5075256;28;20931;-78
2023/08/18 01:05:06;;;;;;;7.00;6.07;;;;;;;24.39;62.93;94939.28;5075329;28;20444;-77
2023/08/18 01:07:33;;;;;;;7.60;6.50;;;;;;;24.27;63.82;94940.94;5072988;28;20443;-78
2023/08/18 01:09:59;;;;;;;6.67;6.10;;;;;;;24.00;65.03;94924.97;5075394;28;20479;-77
2023/08/18 01:12:33;;;;;;;9.77;6.10;;;;;;;23.78;66.26;94926.28;5075037;28;20452;-78
2023/08/18 01:15:09;;;;;;;8.03;7.23;;;;;;;23.80;66.47;94918.84;5075522;28;20451;-78
2023/08/18 01:17:47;;;;;;;7.43;6.70;;;;;;;23.70;66.52;94924.63;5074957;28;20452;-78
2023/08/18 01:20:15;;;;;;;6.27;5.80;;;;;;;23.82;66.42;94929.34;5074928;28;20454;-77
2023/08/18 01:22:46;;;;;;;7.77;5.80;;;;;;;23.92;66.91;94930.56;5075283;28;20438;-78
2023/08/18 01:25:14;;;;;;;7.10;5.90;;;;;;;23.99;67.03;94931.34;5075031;28;20448;-77
2023/08/18 01:27:41;;;;;;;6.83;6.20;;;;;;;24.03;66.40;94937.13;5075173;28;20804;-77
2023/08/18 01:30:09;;;;;;;7.00;6.50;;;;;;;24.09;66.42;94934.41;5074864;28;20522;-78
2023/08/18 01:32:41;;;;;;;10.47;5.60;;;;;;;24.16;67.09;94941.59;5074849;28;20451;-78
2023/08/18 01:35:11;;;;;;;11.13;6.80;;;;;;;24.21;66.62;94941.78;5055793;28;20433;-77
2023/08/18 01:37:42;;;;;;;7.13;6.50;;;;;;;24.24;65.75;94934.13;5056030;28;20432;-77
2023/08/18 01:40:13;;;;;;;7.40;6.67;;;;;;;24.25;66.03;94937.63;5074793;28;20470;-77
2023/08/18 01:42:42;;;;;;;8.93;6.40;;;;;;;24.21;65.12;94942.63;5074803;28;20451;-77
2023/08/18 01:45:11;;;;;;;10.67;7.00;;;;;;;24.21;65.17;94941.78;5074675;28;20659;-77
2023/08/18 01:47:38;;;;;;;12.63;7.43;;;;;;;24.03;65.75;94939.81;5074397;28;20449;-77
2023/08/18 01:50:05;;;;;;;9.17;7.50;;;;;;;24.08;65.58;94932.78;5074770;28;20488;-77
2023/08/18 01:52:32;;;;;;;7.20;6.57;;;;;;;24.12;66.29;94937.72;5074813;28;20934;-77
2023/08/18 01:54:59;;;;;;;7.07;6.53;;;;;;;24.13;66.82;94926.78;5074443;28;20455;-77
2023/08/18 01:57:26;;;;;;;6.83;6.30;;;;;;;24.16;66.76;94930.88;5055969;28;20941;-75
2023/08/18 01:59:54;;;;;;;12.67;7.60;;;;;;;24.10;66.64;94925.34;5074217;28;20927;-77
2023/08/18 02:02:21;;;;;;;7.33;6.33;;;;;;;24.06;66.10;94920.63;5055492;28;20853;-77
2023/08/18 02:04:48;;;;;;;9.67;6.07;;;;;;;24.03;66.00;94916.50;5074535;28;20437;-78
2023/08/18 02:07:14;;;;;;;8.27;6.40;;;;;;;24.00;66.44;94910.75;5074424;28;20447;-77
2023/08/18 02:09:43;;;;;;;6.57;5.90;;;;;;;23.96;65.92;94907.66;5074184;28;20485;-77
2023/08/18 02:12:09;;;;;;;7.80;5.70;;;;;;;23.99;66.16;94911.75;5074110;28;20440;-78
2023/08/18 02:14:39;;;;;;;7.77;5.93;;;;;;;24.00;nan;94908.91;5073922;28;20475;-77
2023/08/18 02:17:07;;;;;;;8.27;6.03;;;;;;;24.00;65.95;94908.91;5074176;28;20444;-77
2023/08/18 02:19:34;;;;;;;6.80;6.10;;;;;;;24.03;66.29;94907.66;5073758;28;20457;-77
2023/08/18 02:22:01;;;;;;;7.07;6.13;;;;;;;24.00;66.22;94911.56;5073763;28;20472;-77
2023/08/18 02:24:28;;;;;;;6.70;6.10;;;;;;;23.96;66.35;94909.50;5073956;28;20436;-77
2023/08/18 02:27:18;;;;;;;6.83;6.13;;;;;;;23.92;66.21;94901.06;5038120;28;20420;-77
2023/08/18 02:29:50;;;;;;;8.93;6.83;;;;;;;23.89;66.72;94901.50;5073468;28;20485;-77
2023/08/18 02:32:23;;;;;;;7.27;6.17;;;;;;;23.78;66.14;94902.16;5073951;28;20440;-77
2023/08/18 02:34:51;;;;;;;6.47;5.93;;;;;;;23.57;67.15;94900.56;5073604;28;20531;-78
2023/08/18 02:37:17;;;;;;;8.20;7.17;;;;;;;23.27;67.39;94905.53;5073396;28;20478;-78
2023/08/18 02:39:44;;;;;;;8.57;7.10;;;;;;;23.24;67.60;94905.13;5073452;28;20452;-77
2023/08/18 02:42:11;;;;;;;8.70;7.30;;;;;;;23.13;68.11;94904.72;5073630;28;20446;-77
2023/08/18 02:44:40;;;;;;;8.53;6.30;;;;;;;23.12;67.61;94905.72;5073558;28;20443;-77
2023/08/18 02:47:09;;;;;;;7.47;6.87;;;;;;;23.31;67.21;94903.25;5073636;28;20531;-78
2023/08/18 02:49:37;;;;;;;6.70;6.10;;;;;;;23.39;66.86;94905.72;5073733;28;20544;-79
2023/08/18 02:52:05;;;;;;;11.00;7.40;;;;;;;23.39;66.80;94908.38;5073489;28;20447;-77
2023/08/18 02:54:31;;;;;;;10.20;7.30;;;;;;;23.43;66.88;94902.44;5073719;28;20446;-76
2023/08/18 02:56:58;;;;;;;9.43;6.53;;;;;;;23.47;67.25;94905.50;5073818;28;20847;-77
2023/08/18 02:59:27;;;;;;;11.40;6.97;;;;;;;23.45;67.27;94902.22;5072882;28;20530;-77
2023/08/18 03:01:54;;;;;;;7.10;6.43;;;;;;;23.44;67.34;94905.94;5073308;28;20452;-77
2023/08/18 03:04:24;;;;;;;7.90;7.10;;;;;;;23.43;67.33;94907.78;5072939;28;20451;-78
2023/08/18 03:06:52;;;;;;;7.67;6.83;;;;;;;23.41;68.19;94900.97;5073429;28;20812;-79
2023/08/18 03:09:19;;;;;;;10.57;8.27;;;;;;;23.43;68.51;94897.06;5073273;28;20485;-79
2023/08/18 03:11:46;;;;;;;9.83;6.77;;;;;;;23.43;68.11;94905.09;5073093;28;20531;-78
2023/08/18 03:14:13;;;;;;;11.00;7.70;;;;;;;23.38;68.90;94904.06;5073251;28;20478;-78
2023/08/18 03:16:40;;;;;;;9.47;7.27;;;;;;;23.38;68.62;94904.88;5073234;28;20443;-77
2023/08/18 03:19:06;;;;;;;8.03;7.37;;;;;;;23.38;68.65;94909.41;5053932;28;20436;-77
2023/08/18 03:21:33;;;;;;;7.63;6.57;;;;;;;23.38;68.89;94904.88;5072762;28;20472;-78
2023/08/18 03:24:01;;;;;;;7.53;6.73;;;;;;;23.39;68.84;94901.19;5072766;28;20454;-78
2023/08/18 03:26:28;;;;;;;12.00;7.67;;;;;;;23.38;68.74;94906.75;5073600;28;20440;-77
2023/08/18 03:28:57;;;;;;;9.03;7.50;;;;;;;23.37;68.76;94903.25;5074230;28;20444;-78
2023/08/18 03:31:24;;;;;;;15.93;8.00;;;;;;;23.28;68.52;94904.50;5072717;28;20449;-77
2023/08/18 03:33:51;;;;;;;8.33;7.53;;;;;;;23.25;68.52;94906.78;5053299;28;20792;-78
2023/08/18 03:36:20;;;;;;;8.87;8.00;;;;;;;23.24;69.20;94905.94;5072217;28;20443;-77
2023/08/18 03:38:46;;;;;;;8.13;7.00;;;;;;;23.21;69.53;94908.22;5073063;28;20876;-77
2023/08/18 03:41:15;;;;;;;9.00;7.00;;;;;;;23.13;69.17;94906.56;5072649;28;20449;-78
2023/08/18 03:43:42;;;;;;;10.23;6.77;;;;;;;23.08;68.95;94909.84;5073719;28;20477;-78
2023/08/18 03:46:20;;;;;;;8.70;7.10;;;;;;;23.09;68.82;94910.69;5077265;28;20450;-77
2023/08/18 03:48:47;;;;;;;7.50;6.90;;;;;;;23.13;68.63;94911.91;5077455;28;20452;-77
2023/08/18 03:51:14;;;;;;;11.77;6.17;;;;;;;23.15;68.13;94913.38;5083465;28;20723;-76
2023/08/18 03:53:41;;;;;;;8.07;6.87;;;;;;;22.91;69.33;94919.34;5089164;28;20431;-77
2023/08/18 03:56:08;;;;;;;16.10;7.20;;;;;;;22.64;71.13;94915.78;5092193;28;20451;-76
2023/08/18 03:58:36;;;;;;;9.03;7.10;;;;;;;22.59;71.53;94910.22;5073612;28;20437;-77
2023/08/18 04:01:04;;;;;;;9.73;7.30;;;;;;;22.61;71.44;94907.34;5092470;28;20443;-77
2023/08/18 04:03:31;;;;;;;10.93;7.47;;;;;;;22.68;71.70;94914.34;5091572;28;20442;-78
2023/08/18 04:05:58;;;;;;;20.33;8.77;;;;;;;22.78;71.96;94914.75;5088887;28;20442;-78
2023/08/18 04:08:25;;;;;;;9.87;7.90;;;;;;;22.80;71.85;94917.22;5082885;28;20468;-78
2023/08/18 04:10:52;;;;;;;9.77;7.83;;;;;;;22.86;71.82;94914.63;5084250;28;20482;-78
2023/08/18 04:13:19;;;;;;;16.50;8.57;;;;;;;22.95;71.68;94917.91;5088481;28;20519;-78
2023/08/18 04:15:47;;;;;;;8.80;7.80;;;;;;;23.10;72.02;94917.69;5092593;28;20921;-77
2023/08/18 04:18:14;;;;;;;15.37;8.00;;;;;;;23.19;71.21;94908.44;5090893;28;20442;-78
2023/08/18 04:20:41;;;;;;;12.10;8.00;;;;;;;23.41;70.42;94915.19;5086370;28;20545;-77
2023/08/18 04:23:08;;;;;;;7.60;7.00;;;;;;;23.76;68.95;94917.63;5084627;28;20448;-77
2023/08/18 04:25:35;;;;;;;7.73;7.03;;;;;;;24.21;67.26;94914.97;5062482;28;20498;-78
2023/08/18 04:28:02;;;;;;;9.20;7.07;;;;;;;24.62;65.52;94926.16;5059676;28;20443;-77
2023/08/18 04:30:28;;;;;;;7.60;6.13;;;;;;;24.92;64.14;94922.84;5078780;28;21104;-78
2023/08/18 04:32:57;;;;;;;13.33;7.50;;;;;;;25.19;61.66;94924.31;5078670;28;20444;-77
2023/08/18 04:35:23;;;;;;;8.83;6.73;;;;;;;25.38;60.01;94924.34;5078707;28;20441;-77
2023/08/18 04:37:50;;;;;;;11.47;6.30;;;;;;;25.72;59.25;94923.00;5079043;28;20440;-78
2023/08/18 04:40:17;;;;;;;8.80;6.37;;;;;;;26.08;58.25;94925.72;5078639;28;20448;-78
2023/08/18 04:42:44;;;;;;;8.00;6.83;;;;;;;26.41;58.23;94932.59;5078887;28;20502;-78
2023/08/18 04:45:11;;;;;;;12.03;7.63;;;;;;;26.73;55.41;94935.88;5059965;28;20442;-78
2023/08/18 04:47:38;;;;;;;6.87;6.27;;;;;;;27.05;55.17;94934.59;5060147;28;20441;-77
2023/08/18 04:50:08;;;;;;;7.00;5.60;;;;;;;27.33;54.58;94933.13;5078698;28;20480;-77
2023/08/18 04:52:35;;;;;;;11.27;6.60;;;;;;;27.55;54.38;94936.06;5078412;28;20441;-78
2023/08/18 04:55:02;;;;;;;10.43;7.33;;;;;;;27.26;55.67;94941.31;5078507;28;20936;-78
2023/08/18 04:57:29;;;;;;;10.33;6.60;;;;;;;27.17;57.04;94938.13;5078932;28;20460;-78
2023/08/18 04:59:55;;;;;;;9.60;7.63;;;;;;;27.30;56.80;94938.97;5078552;28;20456;-78
2023/08/18 05:02:22;;;;;;;9.13;7.30;;;;;;;27.49;56.22;94939.72;5078555;28;20451;-78
2023/08/18 05:04:49;;;;;;;17.53;7.07;;;;;;;27.63;54.08;94936.56;5078427;28;20436;-78
2023/08/18 05:07:17;;;;;;;8.17;7.17;;;;;;;27.78;54.37;94933.41;5078542;28;20832;-78
2023/08/18 05:09:44;;;;;;;10.93;7.87;;;;;;;28.10;53.35;94931.13;5078503;28;20432;-78
2023/08/18 05:12:11;;;;;;;11.30;6.87;;;;;;;28.01;52.88;94937.94;5078841;28;20463;-78
2023/08/18 05:14:38;;;;;;;8.67;7.33;;;;;;;27.98;53.51;94941.09;5078904;28;20531;-78
2023/08/18 05:17:05;;;;;;;12.23;7.40;;;;;;;28.08;53.00;94936.78;5078576;28;20445;-79
2023/08/18 05:19:31;;;;;;;10.57;6.60;;;;;;;28.29;53.08;94937.22;5078394;28;20951;-79
2023/08/18 05:21:58;;;;;;;16.23;7.10;;;;;;;28.43;52.77;94943.16;5077068;28;20475;-78
2023/08/18 05:24:27;;;;;;;12.23;6.60;;;;;;;28.36;52.61;94941.44;5075479;28;20469;-78
2023/08/18 05:26:55;;;;;;;7.40;6.60;;;;;;;28.44;52.63;94942.94;5075168;28;20430;-78
2023/08/18 05:29:21;;;;;;;13.23;7.00;;;;;;;28.33;51.50;94941.88;5075117;28;20961;-79
2023/08/18 05:31:49;;;;;;;11.23;6.20;;;;;;;28.35;51.47;94949.78;5075146;28;20485;-77
2023/08/18 05:34:16;;;;;;;12.87;6.43;;;;;;;28.44;50.65;94947.50;5073017;28;20441;-77
2023/08/18 05:36:43;;;;;;;9.93;6.60;;;;;;;28.42;51.87;94944.22;5056155;28;20993;-79
2023/08/18 05:39:09;;;;;;;11.43;7.10;;;;;;;28.67;52.18;94942.84;5075459;28;20441;-79
2023/08/18 05:41:37;;;;;;;9.33;5.60;;;;;;;28.72;50.79;94944.81;5056049;28;20445;-78
2023/08/18 05:44:05;;;;;;;8.50;6.30;;;;;;;28.60;52.35;94947.56;5075056;28;20451;-79
2023/08/18 05:46:32;;;;;;;7.57;6.77;;;;;;;28.78;51.99;94948.44;5074807;28;20469;-78
2023/08/18 05:48:59;;;;;;;8.37;5.70;;;;;;;29.05;51.49;94943.28;5074824;28;20797;-78
2023/08/18 05:51:26;;;;;;;7.40;6.87;;;;;;;29.40;51.23;94943.88;5074702;28;20835;-78
2023/08/18 05:53:52;;;;;;;12.73;6.60;;;;;;;29.37;48.49;94944.38;5074784;28;20448;-79
2023/08/18 05:56:19;;;;;;;7.77;7.07;;;;;;;28.85;50.40;94938.31;5074618;28;20444;-78
2023/08/18 05:58:47;;;;;;;9.53;6.97;;;;;;;29.08;50.84;94948.19;5077579;28;20465;-77
2023/08/18 06:01:17;;;;;;;8.87;6.20;;;;;;;28.96;50.60;94941.00;5093783;28;20922;-78
2023/08/18 06:03:43;;;;;;;8.47;6.80;;;;;;;29.19;50.69;94947.31;5075027;28;20473;-77
2023/08/18 06:06:10;;;;;;;10.07;6.13;;;;;;;29.56;51.19;94945.81;5074733;28;20452;-77
2023/08/18 06:08:37;;;;;;;9.23;6.40;;;;;;;29.99;49.35;94938.03;5074340;28;20444;-78
2023/08/18 06:11:04;;;;;;;6.37;5.80;;;;;;;30.28;47.51;94942.25;5074222;28;20484;-78
2023/08/18 06:13:31;;;;;;;6.40;5.77;;;;;;;30.73;46.10;94939.31;5074385;28;20441;-78
2023/08/18 06:16:03;;;;;;;7.13;6.40;;;;;;;31.10;45.44;94944.81;5071778;28;20792;-78
2023/08/18 06:18:30;;;;;;;12.43;6.57;;;;;;;31.44;44.07;94947.31;5073477;28;20445;-78
2023/08/18 06:20:57;;;;;;;5.50;5.10;;;;;;;31.74;43.08;94944.03;5073388;28;20827;-78
2023/08/18 06:23:24;;;;;;;15.40;6.67;;;;;;;32.12;42.21;94944.84;5073937;28;20445;-76
2023/08/18 06:25:51;;;;;;;7.33;6.63;;;;;;;32.37;41.71;94952.31;5073900;28;20444;-78
2023/08/18 06:28:18;;;;;;;9.03;5.97;;;;;;;32.56;41.26;94948.88;5073848;28;20523;-78
2023/08/18 06:30:44;;;;;;;19.63;5.63;;;;;;;32.25;42.22;94950.66;5073286;28;20491;-78
2023/08/18 06:33:13;;;;;;;5.40;5.00;;;;;;;32.20;41.88;94952.50;5073590;28;20444;-77
2023/08/18 06:35:39;;;;;;;7.60;6.00;;;;;;;32.30;42.23;94958.00;5072584;28;20478;-77
2023/08/18 06:38:06;;;;;;;7.13;5.90;;;;;;;32.50;42.25;94947.22;5073770;28;20440;-78
2023/08/18 06:40:33;;;;;;;9.10;5.90;;;;;;;32.46;41.43;94950.75;5074104;28;20441;-77
2023/08/18 06:43:00;;;;;;;6.43;5.70;;;;;;;32.14;41.65;94953.56;5073363;28;20441;-78
2023/08/18 06:45:26;;;;;;;6.43;5.87;;;;;;;31.92;42.15;94957.22;5073508;28;20921;-78
2023/08/18 06:47:53;;;;;;;7.97;5.40;;;;;;;31.94;42.48;94967.81;5073311;28;20440;-78
2023/08/18 06:50:21;;;;;;;6.30;5.70;;;;;;;32.03;41.97;94955.38;5073103;28;20451;-78
2023/08/18 06:52:48;;;;;;;5.70;5.30;;;;;;;32.05;42.40;94954.03;5072866;28;20494;-78
2023/08/18 06:55:15;;;;;;;5.57;5.10;;;;;;;31.64;42.50;94965.66;5072783;28;20446;-78
2023/08/18 06:57:42;;;;;;;11.33;5.70;;;;;;;31.66;42.46;94958.06;5072646;28;20448;-77
2023/08/18 07:00:10;;;;;;;6.03;5.53;;;;;;;31.35;41.93;94946.16;5072852;28;20505;-79
2023/08/18 07:02:37;;;;;;;11.57;5.50;;;;;;;31.42;43.26;94954.91;5087472;28;20440;-78
2023/08/18 07:05:05;;;;;;;6.23;5.63;;;;;;;30.75;44.15;94956.13;5072985;28;20441;-78
2023/08/18 07:07:34;;;;;;;6.57;5.97;;;;;;;30.42;45.00;94953.53;5072989;28;20499;-77
2023/08/18 07:10:01;;;;;;;10.57;5.60;;;;;;;30.61;44.72;94945.91;5072896;28;20498;-79
2023/08/18 07:12:28;;;;;;;5.80;5.30;;;;;;;30.82;44.42;94953.19;5072946;28;20499;-78
2023/08/18 07:14:58;;;;;;;6.13;5.60;;;;;;;30.87;44.12;94947.84;5070317;28;20849;-79
2023/08/18 07:17:25;;;;;;;7.00;5.50;;;;;;;31.16;44.04;94953.00;5072863;28;20441;-78
2023/08/18 07:19:52;;;;;;;6.70;5.70;;;;;;;31.62;43.40;94940.69;5070694;28;20421;-78
2023/08/18 07:22:18;;;;;;;6.50;5.53;;;;;;;32.12;43.55;94939.41;5072548;28;20472;-80
2023/08/18 07:24:47;;;;;;;6.60;6.10;;;;;;;32.49;41.63;94934.72;5072815;28;20451;-78
2023/08/18 07:27:14;;;;;;;5.70;5.20;;;;;;;32.65;40.80;94936.41;5072664;28;20955;-77
2023/08/18 07:29:40;;;;;;;7.20;5.93;;;;;;;32.07;40.95;94936.66;5072432;28;20452;-79
2023/08/18 07:32:07;;;;;;;7.87;5.50;;;;;;;32.22;42.40;94928.59;5072571;28;20484;-79
2023/08/18 07:34:34;;;;;;;7.70;5.27;;;;;;;32.67;41.19;94930.69;5072328;28;20437;-78
2023/08/18 07:37:01;;;;;;;14.40;6.03;;;;;;;32.94;40.49;94925.91;5072496;28;20801;-79
2023/08/18 07:39:27;;;;;;;6.67;5.30;;;;;;;33.08;39.67;94926.22;5072200;28;20441;-79
2023/08/18 07:41:56;;;;;;;22.93;7.40;;;;;;;33.18;39.52;94931.66;5072705;28;20444;-79
2023/08/18 07:44:22;;;;;;;4.57;4.17;;;;;;;32.66;38.93;94927.16;5072620;28;20441;-78
2023/08/18 07:46:50;;;;;;;6.63;4.50;;;;;;;32.89;37.17;94935.97;5072102;28;20936;-79
2023/08/18 07:49:17;;;;;;;7.37;3.93;;;;;;;32.59;36.06;94933.94;5072114;28;20527;-77
2023/08/18 07:51:44;;;;;;;5.70;4.20;;;;;;;32.26;35.97;94935.16;5072111;28;20849;-78
2023/08/18 07:54:11;;;;;;;4.10;3.80;;;;;;;32.17;37.09;94940.25;5072077;28;20444;-79
2023/08/18 07:56:38;;;;;;;8.30;4.43;;;;;;;31.61;37.80;94937.16;5070046;28;20482;-78
2023/08/18 07:59:06;;;;;;;3.80;3.50;;;;;;;31.27;37.88;94933.91;5072258;28;20444;-79
2023/08/18 08:01:33;;;;;;;4.30;3.90;;;;;;;31.01;38.20;94940.13;5073068;28;20445;-79
2023/08/18 08:04:00;;;;;;;4.57;4.17;;;;;;;30.75;37.72;94934.44;5072798;28;20449;-80
2023/08/18 08:06:27;;;;;;;5.00;4.50;;;;;;;30.85;39.34;94930.19;5071942;28;20452;-78
2023/08/18 08:08:54;;;;;;;7.10;4.33;;;;;;;30.69;40.07;94921.91;5072278;28;20451;-78
2023/08/18 08:11:21;;;;;;;5.03;4.17;;;;;;;30.50;39.41;94932.22;5072077;28;20511;-78
2023/08/18 08:13:47;;;;;;;6.83;4.33;;;;;;;30.76;39.34;94922.53;5072124;28;20451;-78
2023/08/18 08:16:16;;;;;;;4.60;4.13;;;;;;;30.68;39.36;94916.75;5070390;28;20448;-78
2023/08/18 08:18:43;;;;;;;4.97;4.40;;;;;;;30.52;39.28;94916.53;5071964;28;20444;-77
2023/08/18 08:21:10;;;;;;;5.67;4.57;;;;;;;31.17;40.25;94920.22;5072032;28;20476;-79
2023/08/18 08:23:37;;;;;;;9.03;4.70;;;;;;;31.24;38.37;94914.63;5072401;28;20445;-78
2023/08/18 08:26:04;;;;;;;7.00;3.97;;;;;;;31.35;37.86;94908.19;5072029;28;20487;-79
2023/08/18 08:28:31;;;;;;;4.10;3.80;;;;;;;31.47;37.70;94910.72;5072306;28;20440;-79
2023/08/18 08:30:57;;;;;;;5.67;4.23;;;;;;;31.34;38.35;94906.56;5072085;28;20489;-77
2023/08/18 08:33:25;;;;;;;5.60;4.60;;;;;;;31.22;38.71;94914.03;5071844;28;20443;-78
2023/08/18 08:35:52;;;;;;;6.30;4.53;;;;;;;31.36;39.75;94909.81;5071677;28;20452;-78
2023/08/18 08:38:19;;;;;;;7.03;4.00;;;;;;;31.26;39.26;94915.19;5072357;28;20452;-79
2023/08/18 08:40:48;;;;;;;9.23;4.00;;;;;;;31.19;38.60;94903.72;5071761;28;20433;-77
2023/08/18 08:43:15;;;;;;;4.30;4.00;;;;;;;31.04;39.12;94917.94;5071932;28;20445;-78
2023/08/18 08:45:42;;;;;;;9.47;4.70;;;;;;;31.07;39.38;94920.13;5071738;28;20503;-78
2023/08/18 08:48:12;;;;;;;4.47;3.60;;;;;;;31.25;38.09;94906.22;5071836;28;20445;-79
2023/08/18 08:50:45;;;;;;;4.10;3.80;;;;;;;31.27;38.32;94906.78;5071907;28;20805;-78
2023/08/18 08:53:14;;;;;;;9.60;3.70;;;;;;;31.40;38.15;94900.91;5036216;28;20432;-80
2023/08/18 08:55:43;;;;;;;4.43;4.00;;;;;;;31.36;37.21;94905.22;5071586;28;20441;-78
2023/08/18 08:58:11;;;;;;;4.80;3.80;;;;;;;31.24;38.21;94910.00;5054843;28;20448;-78
2023/08/18 09:00:38;;;;;;;4.00;3.60;;;;;;;31.30;38.76;94892.69;5075301;28;20803;-78
2023/08/18 09:03:06;;;;;;;7.13;4.00;;;;;;;31.15;37.46;94911.50;5075797;28;20448;-79
2023/08/18 09:05:33;;;;;;;4.57;4.17;;;;;;;31.01;38.03;94899.47;5075331;28;20476;-79
2023/08/18 09:08:01;;;;;;;7.43;4.50;;;;;;;30.91;38.49;94900.16;5075503;28;20448;-78
2023/08/18 09:10:28;;;;;;;7.57;4.30;;;;;;;30.89;38.63;94902.31;5075275;28;20456;-77
2023/08/18 09:12:55;;;;;;;9.50;4.00;;;;;;;30.82;38.13;94901.72;5075275;28;20498;-79
2023/08/18 09:15:24;;;;;;;14.73;4.57;;;;;;;30.73;37.79;94897.84;5074972;28;20460;-79
2023/08/18 09:17:51;;;;;;;4.73;4.30;;;;;;;30.96;39.67;94891.28;5074942;28;20445;-77
2023/08/18 09:20:18;;;;;;;10.37;4.40;;;;;;;31.09;39.43;94893.56;5075170;28;20738;-77
2023/08/18 09:22:45;;;;;;;11.00;4.30;;;;;;;31.26;39.40;94888.88;5074590;28;20939;-77
2023/08/18 09:25:14;;;;;;;4.37;4.03;;;;;;;31.26;38.69;94886.16;5075048;28;20502;-78
2023/08/18 09:27:41;;;;;;;5.37;4.37;;;;;;;31.34;38.91;94891.09;5074680;28;20514;-81
2023/08/18 09:30:09;;;;;;;7.07;5.10;;;;;;;31.58;37.90;94896.97;5075129;28;20871;-77
2023/08/18 09:32:36;;;;;;;7.23;4.30;;;;;;;31.56;38.00;94901.03;5089450;28;20484;-79
2023/08/18 09:35:03;;;;;;;8.70;4.20;;;;;;;31.22;39.42;94895.88;5074745;28;20445;-77
2023/08/18 09:37:31;;;;;;;3.97;3.60;;;;;;;31.30;38.60;94892.69;5075079;28;20488;-78
2023/08/18 09:39:58;;;;;;;4.50;3.83;;;;;;;30.98;39.63;94889.16;5074620;28;20476;-78
2023/08/18 09:42:27;;;;;;;4.90;4.40;;;;;;;31.29;39.65;94885.66;5074627;28;20887;-78
2023/08/18 09:44:54;;;;;;;35.60;6.30;;;;;;;31.39;38.97;94888.44;5074517;28;20467;-79
2023/08/18 09:47:23;;;;;;;5.30;4.30;;;;;;;31.78;37.75;94884.63;5074451;28;20955;-78
2023/08/18 09:49:52;;;;;;;5.10;4.40;;;;;;;31.61;37.75;94885.59;5074723;28;20445;-77
2023/08/18 09:52:22;;;;;;;12.07;4.97;;;;;;;31.91;37.06;94895.84;5074354;28;20641;-79
2023/08/18 09:54:55;;;;;;;6.53;4.27;;;;;;;31.01;38.97;94883.22;5074366;28;20440;-78
2023/08/18 09:57:29;;;;;;;5.40;4.37;;;;;;;31.19;38.72;94879.31;5074107;28;20443;-78
2023/08/18 09:59:58;;;;;;;4.47;4.07;;;;;;;31.10;39.02;94874.34;5073963;28;20943;-77
2023/08/18 10:02:33;;;;;;;11.50;4.60;;;;;;;31.17;38.05;94879.56;5074304;28;20445;-77
2023/08/18 10:05:00;;;;;;;4.70;4.20;;;;;;;31.40;37.77;94879.22;5074148;28;20448;-77
2023/08/18 10:07:27;;;;;;;4.30;3.90;;;;;;;31.42;38.38;94874.34;5074255;28;20499;-78
2023/08/18 10:09:56;;;;;;;5.60;4.83;;;;;;;31.32;37.96;94878.88;5075852;28;20799;-77
2023/08/18 10:12:23;;;;;;;5.33;4.93;;;;;;;31.07;38.70;94874.84;5074052;28;20503;-78
2023/08/18 10:14:53;;;;;;;4.83;4.43;;;;;;;31.11;38.53;94886.00;5074223;28;20441;-75
2023/08/18 10:17:24;;;;;;;6.23;4.70;;;;;;;31.14;40.50;94866.50;5074140;28;20448;-78
2023/08/18 10:19:54;;;;;;;4.60;4.20;;;;;;;31.40;38.90;94865.66;5074440;28;20472;-79
2023/08/18 10:22:24;;;;;;;10.13;4.57;;;;;;;31.65;38.35;94875.84;5074169;28;20488;-78
2023/08/18 10:24:52;;;;;;;5.00;4.10;;;;;;;31.55;38.62;94869.56;5073782;28;20465;-78
2023/08/18 10:27:48;;;;;;;6.00;4.17;;;;;;;31.43;38.62;94884.09;5074008;28;20437;-79
2023/08/18 10:30:29;;;;;;;7.47;4.57;;;;;;;31.26;38.26;94867.19;5031441;28;20439;-78
2023/08/18 10:33:03;;;;;;;11.60;4.03;;;;;;;31.05;38.80;94874.28;5031436;28;20478;-81
2023/08/18 10:35:31;;;;;;;7.00;5.60;;;;;;;30.88;39.68;94876.28;5031678;28;20961;-76
2023/08/18 10:38:01;;;;;;;7.93;4.70;;;;;;;31.10;39.92;94881.66;5031676;28;20474;-79
2023/08/18 10:40:29;;;;;;;5.27;4.53;;;;;;;31.22;39.05;94871.47;5031179;28;20451;-79
2023/08/18 10:43:00;;;;;;;6.10;4.20;;;;;;;31.38;39.09;94875.94;5030986;28;20450;-77
2023/08/18 10:45:29;;;;;;;6.13;4.80;;;;;;;31.52;38.52;94876.31;5031237;28;20479;-79
2023/08/18 10:47:59;;;;;;;4.47;4.07;;;;;;;31.32;38.07;94877.00;5031463;28;20439;-79
2023/08/18 10:50:29;;;;;;;7.73;4.90;;;;;;;31.47;39.05;94868.13;5030987;28;20453;-79
2023/08/18 10:52:56;;;;;;;5.10;4.63;;;;;;;31.29;37.92;94866.66;5031075;28;20501;-78
2023/08/18 10:55:23;;;;;;;4.60;4.20;;;;;;;31.52;38.74;94864.66;5030913;28;20786;-78
2023/08/18 10:57:51;;;;;;;5.20;4.80;;;;;;;31.59;38.58;94859.81;5031223;28;20445;-78
2023/08/18 11:00:19;;;;;;;4.73;4.33;;;;;;;31.46;37.25;94865.69;5014402;28;20450;-78
2023/08/18 11:02:49;;;;;;;4.60;4.20;;;;;;;31.29;37.67;94855.81;5030877;28;20446;-78
2023/08/18 11:05:17;;;;;;;5.90;5.30;;;;;;;31.30;38.50;94856.63;5022071;28;20478;-78
2023/08/18 11:07:44;;;;;;;5.07;4.57;;;;;;;31.44;38.14;94855.09;5072686;28;20454;-79
2023/08/18 11:10:15;;;;;;;10.00;4.57;;;;;;;31.57;38.25;94860.06;5037889;28;20441;-76
2023/08/18 11:12:42;;;;;;;4.93;4.53;;;;;;;31.55;37.00;94854.09;5073182;28;20584;-77
2023/08/18 11:15:10;;;;;;;8.30;4.80;;;;;;;31.58;37.98;94842.72;5072983;28;20447;-79
2023/08/18 11:17:37;;;;;;;5.60;4.67;;;;;;;31.30;37.70;94862.06;5072880;28;20889;-79
2023/08/18 11:20:07;;;;;;;6.57;4.83;;;;;;;31.31;37.99;94858.25;5072582;28;20437;-75
2023/08/18 11:22:37;;;;;;;5.00;4.40;;;;;;;31.36;37.49;94853.69;5053884;28;20510;-78
2023/08/18 11:25:05;;;;;;;5.80;4.77;;;;;;;31.40;36.57;94840.41;5072663;28;20441;-78
2023/08/18 11:27:32;;;;;;;6.40;5.17;;;;;;;31.67;37.51;94840.31;5072574;28;20455;-78
2023/08/18 11:29:59;;;;;;;5.57;5.00;;;;;;;31.74;36.33;94840.94;5072478;28;20831;-79
2023/08/18 11:32:26;;;;;;;3.93;3.60;;;;;;;31.60;36.36;94850.59;5072543;28;20547;-81
2023/08/18 11:34:53;;;;;;;4.97;4.40;;;;;;;31.68;37.74;94844.66;5072723;28;20928;-78